createdAt,value
2022-12-22T00:00:07.076Z,96370.13
2022-12-22T00:02:52.092Z,96359.47
2022-12-22T00:05:40.887Z,96347.59
2022-12-22T00:08:26.519Z,96352.00
2022-12-22T00:11:12.818Z,96359.16
2022-12-22T00:14:00.682Z,96347.75
2022-12-22T00:16:51.396Z,96357.81
2022-12-22T00:19:36.731Z,96357.19
2022-12-22T00:22:31.203Z,96355.53
2022-12-22T00:25:16.083Z,96340.72
2022-12-22T00:28:01.475Z,96335.22
2022-12-22T00:30:46.854Z,96343.94
2022-12-22T00:33:35.309Z,96325.47
2022-12-22T00:36:22.122Z,96330.50
2022-12-22T00:39:06.933Z,96318.47
2022-12-22T00:41:51.671Z,96324.53
2022-12-22T00:44:36.466Z,96316.75
2022-12-22T00:47:21.241Z,96306.28
2022-12-22T00:50:07.479Z,96315.13
2022-12-22T00:52:53.771Z,96302.47
2022-12-22T00:55:50.593Z,96305.38
2022-12-22T00:58:38.296Z,96299.59
2022-12-22T01:01:23.765Z,96292.88
2022-12-22T01:04:08.860Z,96305.66
2022-12-22T01:06:55.410Z,96289.38
2022-12-22T01:09:41.706Z,96293.19
2022-12-22T01:12:38.207Z,96284.94
2022-12-22T01:15:30.222Z,96265.81
2022-12-22T01:18:15.285Z,96260.91
2022-12-22T01:21:00.096Z,96276.59
2022-12-22T01:23:44.735Z,96279.34
2022-12-22T01:26:30.406Z,96273.84
2022-12-22T01:29:15.287Z,96265.19
2022-12-22T01:32:00.521Z,96259.38
2022-12-22T01:34:45.397Z,96250.25
2022-12-22T01:37:30.138Z,96251.94
2022-12-22T01:40:14.848Z,96254.34
2022-12-22T01:42:59.566Z,96248.72
2022-12-22T01:45:48.485Z,96256.63
2022-12-22T01:48:38.265Z,96248.28
2022-12-22T01:51:31.241Z,96242.06
2022-12-22T01:54:17.107Z,96246.16
2022-12-22T01:57:03.349Z,96233.56
2022-12-22T01:59:48.234Z,96233.41
2022-12-22T02:02:35.208Z,96239.06
2022-12-22T02:05:23.624Z,96223.38
2022-12-22T02:08:17.522Z,96225.78
2022-12-22T02:11:20.094Z,96216.50
2022-12-22T02:14:29.729Z,96215.00
2022-12-22T02:17:18.214Z,96213.78
2022-12-22T02:20:39.690Z,96204.50
2022-12-22T02:23:58.645Z,96201.47
2022-12-22T02:26:56.520Z,96179.56
2022-12-22T02:29:47.842Z,96179.28
2022-12-22T02:32:32.758Z,96178.97
2022-12-22T02:35:17.479Z,96180.78
2022-12-22T02:38:10.148Z,96174.28
2022-12-22T02:41:08.150Z,96173.63
2022-12-22T02:44:10.579Z,96168.63
2022-12-22T02:47:33.222Z,96169.53
2022-12-22T02:50:43.737Z,96154.66
2022-12-22T02:53:32.684Z,96142.91
2022-12-22T02:56:21.241Z,96131.19
2022-12-22T02:59:06.469Z,96145.75
2022-12-22T03:01:51.779Z,96139.69
2022-12-22T03:04:37.110Z,96133.84
2022-12-22T03:07:21.757Z,96136.13
2022-12-22T03:10:06.486Z,96123.78
2022-12-22T03:12:51.342Z,96130.97
2022-12-22T03:15:36.240Z,96122.69
2022-12-22T03:18:24.120Z,96108.91
2022-12-22T03:21:08.825Z,96105.25
2022-12-22T03:23:53.626Z,96100.88
2022-12-22T03:26:20.194Z,96098.41
2022-12-22T03:28:46.877Z,96102.94
2022-12-22T03:31:13.545Z,96103.06
2022-12-22T03:33:40.793Z,96095.78
2022-12-22T03:36:08.287Z,96095.41
2022-12-22T03:38:34.927Z,96093.63
2022-12-22T03:41:01.488Z,96093.72
2022-12-22T03:43:46.348Z,96078.50
2022-12-22T03:46:15.151Z,96080.59
2022-12-22T03:48:41.939Z,96089.38
2022-12-22T03:51:08.371Z,96074.78
2022-12-22T03:53:34.713Z,96069.28
2022-12-22T03:56:07.217Z,96070.59
2022-12-22T03:58:34.226Z,96068.88
2022-12-22T04:01:07.951Z,96069.19
2022-12-22T04:03:34.568Z,96060.66
2022-12-22T04:06:01.028Z,96054.09
2022-12-22T04:08:27.398Z,96049.34
2022-12-22T04:11:12.500Z,96054.09
2022-12-22T04:13:38.886Z,96057.69
2022-12-22T04:16:05.530Z,96055.81
2022-12-22T04:18:31.935Z,96054.22
2022-12-22T04:20:58.280Z,96044.16
2022-12-22T04:23:24.707Z,96051.56
2022-12-22T04:25:51.082Z,96045.06
2022-12-22T04:28:17.508Z,96039.97
2022-12-22T04:30:43.902Z,96040.88
2022-12-22T04:33:10.331Z,96035.31
2022-12-22T04:35:36.685Z,96039.66
2022-12-22T04:38:03.081Z,96025.72
2022-12-22T04:40:29.427Z,96036.09
2022-12-22T04:42:55.777Z,96005.75
2022-12-22T04:45:22.128Z,96031.91
2022-12-22T04:47:48.491Z,96021.66
2022-12-22T04:50:15.119Z,96038.91
2022-12-22T04:52:41.481Z,96019.25
2022-12-22T04:55:09.234Z,96002.97
2022-12-22T04:57:40.538Z,95994.06
2022-12-22T05:00:08.790Z,95991.41
2022-12-22T05:02:35.206Z,95990.84
2022-12-22T05:05:01.751Z,95989.88
2022-12-22T05:07:28.144Z,95994.41
2022-12-22T05:09:54.543Z,95996.81
2022-12-22T05:12:39.274Z,95989.88
2022-12-22T05:15:06.558Z,95992.38
2022-12-22T05:17:32.923Z,95991.19
2022-12-22T05:19:59.268Z,95993.09
2022-12-22T05:22:25.655Z,95991.28
2022-12-22T05:24:52.001Z,95984.75
2022-12-22T05:27:18.358Z,95975.72
2022-12-22T05:29:44.736Z,95988.91
2022-12-22T05:32:11.107Z,95964.28
2022-12-22T05:34:37.451Z,95978.25
2022-12-22T05:37:03.808Z,95975.72
2022-12-22T05:39:30.177Z,95966.97
2022-12-22T05:41:56.520Z,95984.91
2022-12-22T05:44:22.892Z,95978.88
2022-12-22T05:46:52.307Z,95983.84
2022-12-22T05:49:19.398Z,95960.16
2022-12-22T05:51:46.497Z,95965.91
2022-12-22T05:54:12.855Z,95963.56
2022-12-22T05:56:39.214Z,95962.78
2022-12-22T05:59:05.579Z,95966.28
2022-12-22T06:01:31.975Z,95975.53
2022-12-22T06:04:00.605Z,95965.16
2022-12-22T06:06:27.187Z,95966.56
2022-12-22T06:08:53.547Z,95966.91
2022-12-22T06:11:19.908Z,95956.38
2022-12-22T06:13:46.325Z,95951.81
2022-12-22T06:16:12.711Z,95956.81
2022-12-22T06:18:39.105Z,95936.28
2022-12-22T06:21:05.604Z,95943.50
2022-12-22T06:23:31.957Z,95950.66
2022-12-22T06:26:01.504Z,95959.81
2022-12-22T06:28:28.546Z,95954.13
2022-12-22T06:30:55.556Z,95950.84
2022-12-22T06:33:22.010Z,95947.31
2022-12-22T06:35:52.357Z,95949.16
2022-12-22T06:38:23.799Z,95951.31
2022-12-22T06:40:50.167Z,95951.31
2022-12-22T06:43:16.558Z,95959.19
2022-12-22T06:45:43.712Z,95950.13
2022-12-22T06:48:12.324Z,95961.34
2022-12-22T06:50:39.471Z,95968.56
2022-12-22T06:53:08.499Z,95965.91
2022-12-22T06:55:35.302Z,95967.94
2022-12-22T06:58:02.139Z,95979.16
2022-12-22T07:00:28.721Z,95968.16
2022-12-22T07:02:55.313Z,95972.56
2022-12-22T07:05:23.754Z,95985.66
2022-12-22T07:07:50.488Z,95980.47
2022-12-22T07:10:16.861Z,95983.06
2022-12-22T07:12:43.214Z,95991.75
2022-12-22T07:15:10.258Z,95974.53
2022-12-22T07:17:36.717Z,95974.66
2022-12-22T07:20:03.269Z,95986.44
2022-12-22T07:22:30.630Z,95975.38
2022-12-22T07:24:57.837Z,95980.56
2022-12-22T07:27:24.239Z,95988.34
2022-12-22T07:29:50.601Z,95990.44
2022-12-22T07:32:16.953Z,95972.59
2022-12-22T07:34:43.359Z,95984.19
2022-12-22T07:37:09.775Z,95992.59
2022-12-22T07:39:36.229Z,95988.34
2022-12-22T07:42:21.316Z,95981.88
2022-12-22T07:44:47.701Z,95987.50
2022-12-22T07:47:14.129Z,95981.97
2022-12-22T07:49:59.220Z,95981.88
2022-12-22T07:52:25.596Z,95978.09
2022-12-22T07:54:51.983Z,95975.50
2022-12-22T07:57:18.344Z,95981.75
2022-12-22T07:59:44.703Z,95977.22
2022-12-22T08:02:12.211Z,95988.69
2022-12-22T08:04:38.765Z,95971.06
2022-12-22T08:07:05.211Z,95971.94
2022-12-22T08:09:31.586Z,95984.56
2022-12-22T08:11:57.941Z,95982.50
2022-12-22T08:14:24.316Z,95986.72
2022-12-22T08:16:50.700Z,95983.38
2022-12-22T08:19:17.094Z,95984.84
2022-12-22T08:21:50.323Z,95967.59
2022-12-22T08:24:19.032Z,95977.84
2022-12-22T08:26:49.260Z,95984.13
2022-12-22T08:29:23.731Z,95979.03
2022-12-22T08:31:50.340Z,95993.84
2022-12-22T08:34:17.034Z,95986.38
2022-12-22T08:36:48.058Z,96002.81
2022-12-22T08:39:16.321Z,95993.72
2022-12-22T08:41:51.810Z,95996.84
2022-12-22T08:44:29.104Z,96009.09
2022-12-22T08:46:58.019Z,96008.31
2022-12-22T08:49:25.290Z,96007.13
2022-12-22T08:51:52.739Z,96023.78
2022-12-22T08:54:19.675Z,96017.81
2022-12-22T08:56:46.232Z,96017.63
2022-12-22T08:59:13.475Z,96028.13
2022-12-22T09:01:44.256Z,96023.56
2022-12-22T09:04:15.073Z,96031.97
2022-12-22T09:06:41.671Z,96041.03
2022-12-22T09:09:10.506Z,96036.28
2022-12-22T09:11:37.221Z,96040.81
2022-12-22T09:14:05.314Z,96040.31
2022-12-22T09:16:33.947Z,96054.78
2022-12-22T09:19:00.643Z,96049.81
2022-12-22T09:21:28.019Z,96048.41
2022-12-22T09:23:55.469Z,96039.75
2022-12-22T09:26:23.716Z,96042.22
2022-12-22T09:28:51.081Z,96060.69
2022-12-22T09:31:19.357Z,96061.91
2022-12-22T09:33:46.344Z,96077.03
2022-12-22T09:36:15.304Z,96069.19
2022-12-22T09:38:42.186Z,96064.88
2022-12-22T09:41:14.929Z,96082.50
2022-12-22T09:43:41.327Z,96077.38
2022-12-22T09:46:35.163Z,96079.78
2022-12-22T09:49:01.911Z,96082.91
2022-12-22T09:51:29.872Z,96095.28
2022-12-22T09:54:01.037Z,96099.97
2022-12-22T09:56:28.992Z,96098.63
2022-12-22T09:58:55.599Z,96104.25
2022-12-22T10:01:48.428Z,96124.50
2022-12-22T10:04:44.918Z,96126.09
2022-12-22T10:07:32.567Z,96134.28
2022-12-22T10:10:17.025Z,96140.25
2022-12-22T10:12:43.402Z,96126.94
2022-12-22T10:15:16.849Z,96136.81
2022-12-22T10:17:50.969Z,96137.25
2022-12-22T10:20:26.857Z,96145.91
2022-12-22T10:23:01.822Z,96152.19
2022-12-22T10:26:17.261Z,96147.19
2022-12-22T10:28:27.554Z,96159.06
2022-12-22T10:31:18.208Z,96161.47
2022-12-22T10:33:47.765Z,96155.59
2022-12-22T10:36:21.107Z,96175.72
2022-12-22T10:39:08.775Z,96164.78
2022-12-22T10:41:47.482Z,96177.22
2022-12-22T10:44:13.758Z,96189.75
2022-12-22T10:46:44.035Z,96186.59
2022-12-22T10:52:30.013Z,96188.97
2022-12-22T10:55:19.326Z,96188.59
2022-12-22T10:57:45.932Z,96187.25
2022-12-22T11:00:23.225Z,96194.41
2022-12-22T11:02:54.555Z,96205.06
2022-12-22T11:05:21.677Z,96200.06
2022-12-22T11:07:48.486Z,96211.44
2022-12-22T11:10:14.850Z,96214.53
2022-12-22T11:13:02.753Z,96223.25
2022-12-22T11:15:47.998Z,96220.53
2022-12-22T11:18:30.032Z,96229.47
2022-12-22T11:21:24.317Z,96227.81
2022-12-22T11:24:01.696Z,96243.38
2022-12-22T11:27:01.899Z,96247.03
2022-12-22T11:29:50.308Z,96245.22
2022-12-22T11:32:37.902Z,96257.41
2022-12-22T11:35:26.926Z,96258.66
2022-12-22T11:38:19.259Z,96258.56
2022-12-22T11:40:50.695Z,96265.75
2022-12-22T11:43:46.184Z,96285.06
2022-12-22T11:46:23.968Z,96269.25
2022-12-22T11:48:53.091Z,96288.28
2022-12-22T11:51:43.389Z,96282.69
2022-12-22T11:54:38.670Z,96302.03
2022-12-22T11:57:33.671Z,96302.81
2022-12-22T12:00:17.111Z,96300.44
2022-12-22T12:03:18.608Z,96305.44
2022-12-22T12:06:16.248Z,96316.25
2022-12-22T12:09:18.024Z,96316.84
2022-12-22T12:12:08.689Z,96331.31
2022-12-22T12:14:53.107Z,96327.63
2022-12-22T12:18:00.925Z,96327.09
2022-12-22T12:20:49.024Z,96342.78
2022-12-22T12:23:34.878Z,96345.69
2022-12-22T12:26:06.244Z,96343.84
2022-12-22T12:28:32.544Z,96347.66
2022-12-22T12:31:00.857Z,96354.50
2022-12-22T12:33:51.325Z,96349.81
2022-12-22T12:36:46.948Z,96363.81
2022-12-22T12:39:25.091Z,96358.44
2022-12-22T12:42:10.420Z,96367.91
2022-12-22T12:44:38.491Z,96374.28
2022-12-22T12:47:20.974Z,96375.81
2022-12-22T12:50:24.373Z,96377.66
2022-12-22T12:52:50.661Z,96380.06
2022-12-22T12:55:32.208Z,96377.78
2022-12-22T12:58:02.329Z,96370.03
2022-12-22T13:00:34.611Z,96382.22
2022-12-22T13:03:02.074Z,96386.47
2022-12-22T13:05:50.377Z,96387.84
2022-12-22T13:08:47.614Z,96389.53
2022-12-22T13:11:52.194Z,96378.25
2022-12-22T13:14:05.921Z,96389.84
2022-12-22T13:16:38.523Z,96381.19
2022-12-22T13:19:14.857Z,96400.97
2022-12-22T13:21:54.233Z,96394.47
2022-12-22T13:24:26.902Z,96397.50
2022-12-22T13:26:55.860Z,96410.00
2022-12-22T13:29:22.333Z,96424.31
2022-12-22T13:31:53.108Z,96416.09
2022-12-22T13:34:22.220Z,96424.91
2022-12-22T13:36:50.784Z,96417.63
2022-12-22T13:39:17.173Z,96418.66
2022-12-22T13:41:46.626Z,96418.22
2022-12-22T13:44:19.386Z,96431.19
2022-12-22T13:46:46.635Z,96422.97
2022-12-22T13:49:30.257Z,96417.94
2022-12-22T13:52:05.725Z,96427.38
2022-12-22T13:54:35.885Z,96414.75
2022-12-22T13:57:05.456Z,96424.78
2022-12-22T13:59:35.548Z,96436.50
2022-12-22T14:02:08.023Z,96435.31
2022-12-22T14:04:39.553Z,96435.47
2022-12-22T14:07:18.288Z,96435.78
2022-12-22T14:09:56.350Z,96446.88
2022-12-22T14:12:25.833Z,96435.63
2022-12-22T14:14:54.866Z,96453.91
2022-12-22T14:17:22.837Z,96456.66
2022-12-22T14:19:51.466Z,96464.72
2022-12-22T14:22:33.492Z,96458.00
2022-12-22T14:25:08.171Z,96458.16
2022-12-22T14:27:42.045Z,96470.78
2022-12-22T14:30:26.371Z,96456.47
2022-12-22T14:32:56.253Z,96462.41
2022-12-22T14:35:22.719Z,96469.44
2022-12-22T14:38:18.043Z,96473.09
2022-12-22T14:40:45.439Z,96471.25
2022-12-22T14:43:18.919Z,96480.84
2022-12-22T14:45:48.361Z,96474.88
2022-12-22T14:48:27.853Z,96475.47
2022-12-22T14:50:55.295Z,96480.66
2022-12-22T14:53:28.431Z,96463.28
2022-12-22T14:55:54.977Z,96460.09
2022-12-22T14:58:31.166Z,96459.66
2022-12-22T15:01:16.230Z,96474.88
2022-12-22T15:03:43.757Z,96469.84
2022-12-22T15:06:28.420Z,96485.69
2022-12-22T15:09:06.705Z,96485.97
2022-12-22T15:11:36.430Z,96482.16
2022-12-22T15:14:04.526Z,96483.69
2022-12-22T15:16:31.543Z,96476.22
2022-12-22T15:18:58.076Z,96478.03
2022-12-22T15:21:24.457Z,96491.88
2022-12-22T15:23:50.887Z,96478.19
2022-12-22T15:26:17.545Z,96480.78
2022-12-22T15:28:43.912Z,96489.47
2022-12-22T15:31:15.249Z,96491.88
2022-12-22T15:33:42.685Z,96500.69
2022-12-22T15:36:11.588Z,96497.19
2022-12-22T15:38:39.227Z,96493.78
2022-12-22T15:41:06.872Z,96496.69
2022-12-22T15:43:57.209Z,96501.09
2022-12-22T15:46:22.167Z,96487.81
2022-12-22T15:48:48.766Z,96508.69
2022-12-22T15:51:24.866Z,96496.78
2022-12-22T15:53:52.009Z,96509.59
2022-12-22T15:56:21.337Z,96496.94
2022-12-22T15:58:48.235Z,96496.19
2022-12-22T16:01:14.663Z,96499.19
2022-12-22T16:03:41.418Z,96502.72
2022-12-22T16:06:13.661Z,96489.78
2022-12-22T16:08:44.340Z,96491.44
2022-12-22T16:11:10.825Z,96481.84
2022-12-22T16:13:37.779Z,96467.53
2022-12-22T16:16:05.084Z,96475.59
2022-12-22T16:18:32.419Z,96462.03
2022-12-22T16:21:08.194Z,96466.13
2022-12-22T16:23:36.606Z,96469.66
2022-12-22T16:26:04.787Z,96457.31
2022-12-22T16:28:32.906Z,96461.31
2022-12-22T16:31:00.551Z,96446.81
2022-12-22T16:33:27.108Z,96456.28
2022-12-22T16:35:53.679Z,96449.75
2022-12-22T16:38:20.351Z,96442.13
2022-12-22T16:40:50.264Z,96433.59
2022-12-22T16:46:13.572Z,96434.47
2022-12-22T16:48:44.472Z,96444.53
2022-12-22T16:51:26.275Z,96440.41
2022-12-22T16:53:53.043Z,96424.25
2022-12-22T16:56:23.331Z,96443.31
2022-12-22T16:58:49.828Z,96428.38
2022-12-22T17:01:37.704Z,96424.44
2022-12-22T17:04:11.226Z,96418.03
2022-12-22T17:06:38.028Z,96415.59
2022-12-22T17:09:07.326Z,96412.41
2022-12-22T17:11:34.435Z,96413.28
2022-12-22T17:14:07.059Z,96410.59
2022-12-22T17:16:33.618Z,96406.75
2022-12-22T17:19:00.031Z,96404.81
2022-12-22T17:21:29.170Z,96390.47
2022-12-22T17:24:03.851Z,96393.69
2022-12-22T17:26:33.675Z,96392.47
2022-12-22T17:29:00.623Z,96395.06
2022-12-22T17:31:27.141Z,96393.06
2022-12-22T17:33:53.569Z,96382.09
2022-12-22T17:36:39.676Z,96391.50
2022-12-22T17:39:12.937Z,96386.50
2022-12-22T17:41:39.771Z,96380.88
2022-12-22T17:44:06.348Z,96372.47
2022-12-22T17:46:32.828Z,96373.72
2022-12-22T17:48:59.272Z,96367.63
2022-12-22T17:51:28.605Z,96367.13
2022-12-22T17:53:57.742Z,96358.28
2022-12-22T17:56:25.685Z,96363.81
2022-12-22T17:58:52.944Z,96351.00
2022-12-22T18:01:21.847Z,96353.31
2022-12-22T18:03:48.535Z,96353.16
2022-12-22T18:06:18.347Z,96336.28
2022-12-22T18:08:45.376Z,96333.72
2022-12-22T18:11:11.935Z,96339.66
2022-12-22T18:13:38.446Z,96331.91
2022-12-22T18:16:05.980Z,96326.44
2022-12-22T18:18:32.458Z,96325.38
2022-12-22T18:21:05.909Z,96330.91
2022-12-22T18:23:36.368Z,96334.13
2022-12-22T18:26:09.570Z,96313.28
2022-12-22T18:28:36.581Z,96320.13
2022-12-22T18:31:03.069Z,96316.97
2022-12-22T18:33:29.422Z,96320.34
2022-12-22T18:35:58.998Z,96321.09
2022-12-22T18:38:29.423Z,96312.13
2022-12-22T18:40:56.547Z,96299.97
2022-12-22T18:43:23.083Z,96313.22
2022-12-22T18:45:50.022Z,96308.31
2022-12-22T18:48:16.528Z,96310.16
2022-12-22T18:50:43.362Z,96307.88
2022-12-22T18:53:30.258Z,96306.50
2022-12-22T18:55:57.881Z,96301.47
2022-12-22T18:58:25.409Z,96305.28
2022-12-22T19:00:54.495Z,96308.47
2022-12-22T19:03:24.591Z,96293.09
2022-12-22T19:05:51.029Z,96299.97
2022-12-22T19:08:19.805Z,96290.97
2022-12-22T19:10:58.585Z,96299.97
2022-12-22T19:13:37.216Z,96289.16
2022-12-22T19:16:04.229Z,96295.56
2022-12-22T19:18:30.795Z,96292.81
2022-12-22T19:20:57.263Z,96284.28
2022-12-22T19:23:25.689Z,96272.88
2022-12-22T19:26:08.403Z,96280.91
2022-12-22T19:28:41.984Z,96277.28
2022-12-22T19:31:12.544Z,96270.72
2022-12-22T19:33:42.309Z,96273.59
2022-12-22T19:36:37.946Z,96272.53
2022-12-22T19:39:05.887Z,96265.53
2022-12-22T19:41:43.189Z,96244.22
2022-12-22T19:44:30.116Z,96255.47
2022-12-22T19:46:59.201Z,96244.22
2022-12-22T19:49:27.460Z,96234.81
2022-12-22T19:51:55.602Z,96243.47
2022-12-22T19:54:22.145Z,96232.97
2022-12-22T19:56:54.750Z,96227.94
2022-12-22T19:59:37.304Z,96243.13
2022-12-22T20:02:27.732Z,96233.56
2022-12-22T20:04:55.405Z,96217.75
2022-12-22T20:07:24.202Z,96216.78
2022-12-22T20:09:50.708Z,96220.63
2022-12-22T20:12:31.660Z,96225.19
2022-12-22T20:14:58.360Z,96216.19
2022-12-22T20:17:24.848Z,96209.31
2022-12-22T20:19:51.410Z,96211.13
2022-12-22T20:22:20.545Z,96206.09
2022-12-22T20:24:49.766Z,96212.38
2022-12-22T20:27:27.216Z,96194.44
2022-12-22T20:29:53.579Z,96188.34
2022-12-22T20:32:27.282Z,96184.69
2022-12-22T20:34:54.142Z,96185.44
2022-12-22T20:37:20.551Z,96188.50
2022-12-22T20:39:46.975Z,96182.28
2022-12-22T20:42:19.010Z,96179.22
2022-12-22T20:45:02.828Z,96182.72
2022-12-22T20:47:33.091Z,96158.63
2022-12-22T20:49:59.578Z,96166.09
2022-12-22T20:52:26.192Z,96168.06
2022-12-22T20:54:52.540Z,96162.03
2022-12-22T20:57:20.149Z,96163.22
2022-12-22T20:59:53.848Z,96161.56
2022-12-22T21:02:26.929Z,96177.38
2022-12-22T21:04:53.587Z,96177.09
2022-12-22T21:07:19.959Z,96169.78
2022-12-22T21:09:46.411Z,96159.13
2022-12-22T21:12:12.770Z,96164.59
2022-12-22T21:14:39.690Z,96150.09
2022-12-22T21:17:15.154Z,96164.41
2022-12-22T21:19:41.686Z,96150.25
2022-12-22T21:22:08.028Z,96137.78
2022-12-22T21:24:34.427Z,96147.84
2022-12-22T21:27:00.829Z,96146.75
2022-12-22T21:29:27.280Z,96152.19
2022-12-22T21:31:54.263Z,96138.53
2022-12-22T21:34:20.819Z,96130.78
2022-12-22T21:36:50.640Z,96149.72
2022-12-22T21:39:33.229Z,96148.06
2022-12-22T21:42:04.503Z,96150.34
2022-12-22T21:44:33.639Z,96146.69
2022-12-22T21:47:00.904Z,96151.91
2022-12-22T21:49:30.844Z,96145.50
2022-12-22T21:51:57.558Z,96150.06
2022-12-22T21:54:24.887Z,96137.94
2022-12-22T21:56:53.136Z,96132.94
2022-12-22T21:59:19.926Z,96136.84
2022-12-22T22:01:46.751Z,96139.91
2022-12-22T22:04:13.619Z,96135.50
2022-12-22T22:06:40.137Z,96140.81
2022-12-22T22:09:07.174Z,96125.00
2022-12-22T22:11:53.940Z,96124.25
2022-12-22T22:14:20.343Z,96124.25
2022-12-22T22:16:46.685Z,96121.97
2022-12-22T22:19:13.889Z,96100.72
2022-12-22T22:21:40.263Z,96108.75
2022-12-22T22:24:06.893Z,96102.38
2022-12-22T22:26:33.261Z,96107.69
2022-12-22T22:28:59.635Z,96103.00
2022-12-22T22:31:26.045Z,96111.50
2022-12-22T22:33:52.486Z,96094.66
2022-12-22T22:36:18.829Z,96103.31
2022-12-22T22:38:45.186Z,96110.63
2022-12-22T22:41:11.547Z,96110.81
2022-12-22T22:43:37.900Z,96111.53
2022-12-22T22:46:04.476Z,96114.28
2022-12-22T22:48:31.042Z,96101.84
2022-12-22T22:50:57.438Z,96105.78
2022-12-22T22:53:23.869Z,96104.72
2022-12-22T22:55:50.216Z,96110.50
2022-12-22T22:58:16.604Z,96115.06
2022-12-22T23:00:42.959Z,96125.56
2022-12-22T23:03:09.458Z,96114.94
2022-12-22T23:05:36.233Z,96121.31
2022-12-22T23:08:02.621Z,96109.44
2022-12-22T23:10:29.056Z,96107.31
2022-12-22T23:12:55.502Z,96097.28
2022-12-22T23:15:21.919Z,96111.59
2022-12-22T23:17:51.123Z,96109.28
2022-12-22T23:20:17.756Z,96118.88
2022-12-22T23:22:44.116Z,96115.22
2022-12-22T23:25:10.491Z,96098.84
2022-12-22T23:27:36.837Z,96098.66
2022-12-22T23:30:04.571Z,96084.25
2022-12-22T23:32:30.919Z,96097.75
2022-12-22T23:34:57.284Z,96096.84
2022-12-22T23:37:23.648Z,96091.53
2022-12-22T23:39:50.013Z,96085.28
2022-12-22T23:42:16.368Z,96079.81
2022-12-22T23:44:42.748Z,96078.16
2022-12-22T23:47:09.246Z,96078.16
2022-12-22T23:49:35.687Z,96090.75
2022-12-22T23:52:02.039Z,96082.28
2022-12-22T23:54:30.286Z,96083.31
2022-12-22T23:56:56.715Z,96071.00
2022-12-22T23:59:23.080Z,96061.59
